Time;durP1;ratioP1;P1;durP2;ratioP2;P2;SDS_P1;SDS_P2;PMS_P1;PMS_P2;Temp;Humidity;BMP_temperature;BMP_pressure;BME280_temperature;BME280_humidity;BME280_pressure;Samples;Min_cycle;Max_cycle;Signal;HPM_P1;HPM_P2
2022/09/04 00:00:21;;;;;;;1.65;0.90;;;;;;;;;;4944081;28;20055;-83
2022/09/04 00:03:20;;;;;;;1.88;0.90;;;;;;;;;;4919837;29;20080;-85
2022/09/04 00:06:54;;;;;;;3.55;1.00;;;;;;;;;;4978697;28;20479;-84
2022/09/04 00:10:28;;;;;;;2.78;0.93;;;;;;;;;;5016441;28;20062;-85
2022/09/04 00:13:40;;;;;;;3.60;1.10;;;;;;;;;;5001134;28;20045;-84
2022/09/04 00:22:47;;;;;;;3.55;1.10;;;;;;;;;;4977893;28;20109;-85
2022/09/04 00:36:03;;;;;;;3.30;1.27;;;;;;;;;;4968614;28;20045;-83
2022/09/04 00:38:49;;;;;;;1.73;0.90;;;;;;;;;;4930399;28;20050;-83
2022/09/04 00:41:57;;;;;;;2.53;0.70;;;;;;;;;;4956224;28;20053;-82
2022/09/04 00:45:08;;;;;;;1.63;0.90;;;;;;;;;;4991736;28;20064;-82
2022/09/04 00:48:07;;;;;;;6.95;1.00;;;;;;;;;;4982536;28;20140;-83
2022/09/04 00:51:28;;;;;;;2.63;1.00;;;;;;;;;;5009179;28;20058;-82
2022/09/04 00:54:17;;;;;;;3.63;1.00;;;;;;;;;;4990846;28;20077;-82
2022/09/04 00:57:53;;;;;;;2.53;1.00;;;;;;;;;;5010213;28;20049;-82
2022/09/04 01:00:24;;;;;;;2.60;1.20;;;;;;;;;;5021116;28;20041;-83
2022/09/04 01:03:41;;;;;;;1.77;0.82;;;;;;;;;;5041028;28;20091;-82
2022/09/04 01:06:28;;;;;;;4.35;0.98;;;;;;;;;;5037139;28;20041;-83
2022/09/04 01:09:12;;;;;;;7.07;1.30;;;;;;;;;;5040174;28;20041;-83
2022/09/04 01:12:06;;;;;;;1.75;0.88;;;;;;;;;;5041493;28;20075;-83
2022/09/04 01:15:13;;;;;;;3.38;0.93;;;;;;;;;;5039835;28;20064;-83
2022/09/04 01:18:19;;;;;;;2.80;1.00;;;;;;;;;;5006641;28;20475;-82
2022/09/04 01:21:10;;;;;;;3.67;1.00;;;;;;;;;;5040183;28;20036;-83
2022/09/04 01:24:06;;;;;;;3.47;0.93;;;;;;;;;;5037697;28;20678;-82
2022/09/04 01:27:15;;;;;;;4.22;1.00;;;;;;;;;;5027249;28;20045;-83
2022/09/04 01:30:13;;;;;;;2.13;1.00;;;;;;;;;;5029041;28;20040;-82
2022/09/04 01:33:18;;;;;;;2.13;1.00;;;;;;;;;;5025804;28;20037;-83
2022/09/04 01:36:13;;;;;;;2.88;0.95;;;;;;;;;;5018050;28;20132;-83
2022/09/04 01:39:08;;;;;;;1.63;0.80;;;;;;;;;;5037717;28;20122;-82
2022/09/04 01:42:05;;;;;;;2.35;0.93;;;;;;;;;;5024106;28;20045;-82
2022/09/04 01:44:56;;;;;;;3.75;1.13;;;;;;;;;;5038131;28;20029;-83
2022/09/04 01:47:44;;;;;;;1.88;0.77;;;;;;;;;;5002968;28;20053;-82
2022/09/04 01:50:38;;;;;;;1.77;0.80;;;;;;;;;;5038663;28;20041;-82
2022/09/04 01:53:38;;;;;;;1.60;0.90;;;;;;;;;;5023076;28;20108;-82
2022/09/04 01:56:43;;;;;;;2.83;1.30;;;;;;;;;;5038502;28;20097;-81
2022/09/04 02:00:07;;;;;;;2.33;0.98;;;;;;;;;;5038686;28;20063;-82
2022/09/04 02:03:01;;;;;;;1.98;0.95;;;;;;;;;;5029923;28;20700;-81
2022/09/04 02:06:27;;;;;;;2.83;1.15;;;;;;;;;;5020731;28;20044;-82
2022/09/04 02:09:46;;;;;;;3.10;1.02;;;;;;;;;;5039507;28;20053;-82
2022/09/04 02:12:36;;;;;;;2.28;0.82;;;;;;;;;;5040980;28;20080;-83
2022/09/04 02:15:22;;;;;;;3.40;1.02;;;;;;;;;;5020056;28;20037;-82
2022/09/04 02:18:31;;;;;;;2.50;0.93;;;;;;;;;;5038116;28;20037;-82
2022/09/04 02:21:40;;;;;;;1.75;0.88;;;;;;;;;;5038087;28;20056;-82
2022/09/04 02:24:24;;;;;;;2.40;0.95;;;;;;;;;;5038323;28;20071;-82
2022/09/04 02:27:57;;;;;;;2.28;0.95;;;;;;;;;;5039566;28;20536;-82
2022/09/04 02:31:36;;;;;;;2.33;1.00;;;;;;;;;;5039687;28;20163;-83
2022/09/04 02:34:26;;;;;;;1.80;0.80;;;;;;;;;;5026542;28;20041;-82
2022/09/04 02:37:35;;;;;;;5.28;1.30;;;;;;;;;;5022900;28;20042;-83
2022/09/04 02:40:47;;;;;;;1.70;0.90;;;;;;;;;;5024722;28;20057;-83
2022/09/04 02:43:22;;;;;;;1.63;0.70;;;;;;;;;;5041625;28;20125;-82
2022/09/04 02:46:59;;;;;;;6.13;1.00;;;;;;;;;;5042872;28;20041;-83
2022/09/04 02:50:40;;;;;;;2.67;1.10;;;;;;;;;;5031002;28;20438;-83
2022/09/04 02:53:17;;;;;;;2.80;0.90;;;;;;;;;;5025110;28;20049;-82
2022/09/04 02:56:21;;;;;;;2.25;1.23;;;;;;;;;;5038840;28;20041;-83
2022/09/04 02:59:47;;;;;;;2.13;1.00;;;;;;;;;;5032361;28;20116;-82
2022/09/04 03:02:27;;;;;;;1.90;1.07;;;;;;;;;;5044975;28;20056;-83
2022/09/04 03:05:20;;;;;;;3.83;1.10;;;;;;;;;;5052729;28;20045;-82
2022/09/04 03:08:33;;;;;;;2.25;1.05;;;;;;;;;;5045058;28;20127;-82
2022/09/04 03:11:20;;;;;;;2.05;1.00;;;;;;;;;;5003651;28;20044;-82
2022/09/04 03:14:34;;;;;;;3.70;1.30;;;;;;;;;;5048636;28;20067;-82
2022/09/04 03:17:27;;;;;;;4.72;0.98;;;;;;;;;;5025674;28;20063;-82
2022/09/04 03:20:25;;;;;;;1.70;0.90;;;;;;;;;;5043323;28;20056;-82
2022/09/04 03:23:05;;;;;;;2.70;0.90;;;;;;;;;;5059790;28;20052;-82
2022/09/04 03:26:28;;;;;;;2.30;1.02;;;;;;;;;;5009651;28;20182;-83
2022/09/04 03:29:37;;;;;;;2.28;1.10;;;;;;;;;;5044310;28;20083;-82
2022/09/04 03:33:41;;;;;;;4.13;1.10;;;;;;;;;;5058571;28;20060;-83
2022/09/04 03:36:50;;;;;;;;;;;;;;;;;;5043748;28;20033;-82
2022/09/04 03:39:45;;;;;;;2.40;1.00;;;;;;;;;;5042898;28;19952;-83
2022/09/04 03:42:32;;;;;;;4.28;1.00;;;;;;;;;;5025439;28;20053;-83
2022/09/04 03:45:41;;;;;;;2.35;0.93;;;;;;;;;;5040319;28;20057;-82
2022/09/04 03:48:26;;;;;;;3.22;1.20;;;;;;;;;;5040871;28;20036;-83
2022/09/04 03:51:15;;;;;;;3.58;1.20;;;;;;;;;;5037131;28;20045;-83
2022/09/04 03:54:11;;;;;;;5.05;1.33;;;;;;;;;;5039055;28;20050;-82
2022/09/04 03:56:57;;;;;;;3.42;1.10;;;;;;;;;;5042044;28;20128;-82
2022/09/04 03:59:32;;;;;;;5.68;1.40;;;;;;;;;;5037333;28;20052;-83
2022/09/04 04:02:15;;;;;;;2.15;0.95;;;;;;;;;;5038988;28;20041;-82
2022/09/04 04:05:22;;;;;;;3.47;1.20;;;;;;;;;;5011197;28;20076;-82
2022/09/04 04:08:29;;;;;;;2.45;1.15;;;;;;;;;;5019887;28;20060;-82
2022/09/04 04:11:36;;;;;;;1.67;0.98;;;;;;;;;;5028595;28;20040;-82
2022/09/04 04:14:55;;;;;;;4.32;1.10;;;;;;;;;;4997617;28;20579;-83
2022/09/04 04:18:15;;;;;;;1.75;1.00;;;;;;;;;;5031048;28;20061;-82
2022/09/04 04:20:53;;;;;;;2.28;1.15;;;;;;;;;;5003910;28;20202;-82
2022/09/04 04:23:46;;;;;;;2.60;1.05;;;;;;;;;;5018356;28;20155;-82
2022/09/04 04:26:55;;;;;;;2.60;1.05;;;;;;;;;;5007676;28;20624;-82
2022/09/04 04:29:36;;;;;;;3.65;1.13;;;;;;;;;;5004868;28;20041;-82
2022/09/04 04:32:42;;;;;;;2.35;1.10;;;;;;;;;;5024237;28;20053;-83
2022/09/04 04:35:37;;;;;;;2.67;1.10;;;;;;;;;;5011990;28;20568;-82
2022/09/04 04:38:19;;;;;;;3.10;1.20;;;;;;;;;;5029517;28;20053;-83
2022/09/04 04:41:10;;;;;;;4.97;1.30;;;;;;;;;;5036905;28;20041;-82
2022/09/04 04:44:17;;;;;;;2.75;1.02;;;;;;;;;;5038091;28;20036;-82
2022/09/04 04:47:01;;;;;;;2.22;1.10;;;;;;;;;;5019737;28;20037;-82
2022/09/04 04:50:15;;;;;;;3.40;0.90;;;;;;;;;;5021531;28;20049;-82
2022/09/04 04:53:47;;;;;;;2.58;1.05;;;;;;;;;;5039282;28;20064;-82
2022/09/04 04:56:27;;;;;;;2.05;1.13;;;;;;;;;;5029814;28;20128;-82
2022/09/04 04:59:29;;;;;;;2.40;1.20;;;;;;;;;;5034482;28;20048;-83
2022/09/04 05:02:17;;;;;;;2.92;1.05;;;;;;;;;;5049038;28;20044;-83
2022/09/04 05:05:01;;;;;;;2.55;1.20;;;;;;;;;;5022850;28;20363;-83
2022/09/04 05:07:41;;;;;;;2.80;1.10;;;;;;;;;;5021338;28;20033;-85
2022/09/04 05:10:52;;;;;;;2.90;1.27;;;;;;;;;;5052688;28;20146;-83
2022/09/04 05:13:45;;;;;;;2.47;1.10;;;;;;;;;;5041609;28;20203;-82
2022/09/04 05:17:13;;;;;;;2.30;1.05;;;;;;;;;;5028552;28;20037;-83
2022/09/04 05:19:51;;;;;;;2.40;1.33;;;;;;;;;;5044014;28;20108;-83
2022/09/04 05:22:38;;;;;;;2.60;1.10;;;;;;;;;;5045387;28;20041;-83
2022/09/04 05:25:26;;;;;;;1.83;1.00;;;;;;;;;;5021798;28;20136;-83
2022/09/04 05:29:10;;;;;;;2.90;1.20;;;;;;;;;;5041971;28;20063;-83
2022/09/04 05:32:10;;;;;;;2.28;1.17;;;;;;;;;;5038792;28;20133;-82
2022/09/04 05:35:53;;;;;;;2.78;1.35;;;;;;;;;;5061793;28;20536;-83
2022/09/04 05:38:57;;;;;;;8.73;2.03;;;;;;;;;;5058779;28;20056;-83
2022/09/04 05:42:08;;;;;;;2.58;1.08;;;;;;;;;;5044686;28;20057;-85
2022/09/04 05:45:07;;;;;;;3.10;1.30;;;;;;;;;;5046071;28;20611;-83
2022/09/04 05:48:03;;;;;;;3.55;1.38;;;;;;;;;;5012360;28;20140;-83
2022/09/04 05:50:39;;;;;;;2.33;1.02;;;;;;;;;;4975191;28;20045;-82
2022/09/04 05:53:48;;;;;;;2.85;1.15;;;;;;;;;;4956752;28;20053;-84
2022/09/04 05:57:13;;;;;;;3.05;1.10;;;;;;;;;;4955401;28;20073;-84
2022/09/04 06:00:21;;;;;;;2.42;1.13;;;;;;;;;;4952194;28;20699;-82
2022/09/04 06:04:31;;;;;;;1.85;0.93;;;;;;;;;;4942944;29;20054;-82
2022/09/04 06:07:38;;;;;;;2.17;1.20;;;;;;;;;;4931502;29;20078;-81
2022/09/04 06:10:48;;;;;;;3.58;1.20;;;;;;;;;;4940718;29;20050;-83
2022/09/04 06:16:58;;;;;;;;;;;;;;;;;;4940061;28;20079;-84
2022/09/04 06:24:29;;;;;;;3.60;1.17;;;;;;;;;;4942118;29;20075;-85
2022/09/04 06:27:28;;;;;;;3.40;1.20;;;;;;;;;;4895029;29;20571;-85
2022/09/04 06:30:11;;;;;;;2.33;0.95;;;;;;;;;;4918028;29;20132;-83
2022/09/04 06:33:15;;;;;;;2.85;1.33;;;;;;;;;;4936787;28;20055;-84
2022/09/04 06:35:54;;;;;;;2.10;1.10;;;;;;;;;;4968665;28;20055;-83
2022/09/04 06:39:07;;;;;;;3.13;1.40;;;;;;;;;;4970831;28;20529;-85
2022/09/04 06:42:52;;;;;;;2.97;1.42;;;;;;;;;;4933330;28;20058;-82
2022/09/04 06:46:07;;;;;;;2.15;1.02;;;;;;;;;;4879196;29;20152;-85
2022/09/04 06:49:01;;;;;;;2.60;1.30;;;;;;;;;;4823759;29;20097;-83
2022/09/04 06:52:24;;;;;;;3.70;1.42;;;;;;;;;;4845014;29;20188;-85
2022/09/04 06:55:29;;;;;;;2.47;1.10;;;;;;;;;;4856701;29;20212;-86
2022/09/04 06:59:36;;;;;;;2.55;1.58;;;;;;;;;;4848321;29;20561;-85
2022/09/04 07:02:48;;;;;;;3.42;1.30;;;;;;;;;;4852570;29;20075;-83
2022/09/04 07:05:54;;;;;;;2.60;1.30;;;;;;;;;;4803962;29;20070;-83
2022/09/04 07:09:19;;;;;;;3.03;1.30;;;;;;;;;;4824396;29;20087;-83
2022/09/04 07:12:32;;;;;;;3.00;1.40;;;;;;;;;;4817166;29;20085;-84
2022/09/04 07:15:36;;;;;;;4.20;1.30;;;;;;;;;;4819345;29;20134;-83
2022/09/04 07:18:25;;;;;;;2.90;1.17;;;;;;;;;;4926206;29;20233;-83
2022/09/04 07:21:20;;;;;;;3.60;1.65;;;;;;;;;;4926304;29;20628;-85
2022/09/04 07:28:37;;;;;;;2.53;1.20;;;;;;;;;;5033338;28;20222;-83
2022/09/04 07:31:51;;;;;;;4.20;1.60;;;;;;;;;;5002035;28;20142;-83
2022/09/04 07:35:01;;;;;;;5.35;1.50;;;;;;;;;;4958119;28;20115;-84
2022/09/04 07:37:57;;;;;;;4.85;1.98;;;;;;;;;;4987703;28;20042;-85
2022/09/04 07:41:22;;;;;;;3.13;1.50;;;;;;;;;;4989151;28;20148;-83
2022/09/04 07:44:03;;;;;;;3.80;1.58;;;;;;;;;;4991036;28;20150;-82
2022/09/04 07:46:49;;;;;;;6.78;1.70;;;;;;;;;;4985498;28;20696;-84
2022/09/04 07:49:52;;;;;;;2.90;1.50;;;;;;;;;;5002867;28;20129;-84
2022/09/04 07:52:53;;;;;;;3.97;1.67;;;;;;;;;;4973635;28;20527;-84
2022/09/04 07:59:04;;;;;;;6.18;1.70;;;;;;;;;;4985209;28;20049;-83
2022/09/04 08:02:23;;;;;;;5.03;1.92;;;;;;;;;;4984003;28;20145;-84
2022/09/04 08:05:28;;;;;;;7.40;2.00;;;;;;;;;;4986731;28;20482;-83
2022/09/04 08:08:23;;;;;;;5.05;2.10;;;;;;;;;;5020466;28;20488;-82
2022/09/04 08:11:47;;;;;;;4.35;1.90;;;;;;;;;;5016759;28;20033;-82
2022/09/04 08:15:01;;;;;;;5.22;2.05;;;;;;;;;;5021627;28;20038;-84
2022/09/04 08:18:34;;;;;;;3.20;1.67;;;;;;;;;;4998532;28;20037;-83
2022/09/04 08:25:15;;;;;;;5.47;1.98;;;;;;;;;;4914056;29;20044;-80
2022/09/04 08:28:02;;;;;;;5.22;2.20;;;;;;;;;;4892227;29;20048;-82
2022/09/04 08:30:46;;;;;;;4.75;1.98;;;;;;;;;;4886044;29;20107;-84
2022/09/04 08:33:36;;;;;;;6.20;2.17;;;;;;;;;;4914044;29;20071;-80
2022/09/04 08:36:34;;;;;;;3.67;1.98;;;;;;;;;;4917287;29;20811;-82
2022/09/04 08:39:15;;;;;;;4.03;2.30;;;;;;;;;;4930775;28;20081;-82
2022/09/04 08:42:04;;;;;;;3.85;1.90;;;;;;;;;;4948298;28;20055;-81
2022/09/04 08:45:11;;;;;;;5.20;2.10;;;;;;;;;;4919905;28;20073;-83
2022/09/04 08:48:06;;;;;;;6.70;1.90;;;;;;;;;;4950724;28;20043;-79
2022/09/04 08:50:37;;;;;;;4.35;1.90;;;;;;;;;;4951523;28;20063;-79
2022/09/04 08:53:38;;;;;;;4.30;2.08;;;;;;;;;;4960845;28;20051;-81
2022/09/04 08:56:46;;;;;;;6.00;2.20;;;;;;;;;;5041863;28;20123;-81
2022/09/04 09:00:09;;;;;;;4.07;2.35;;;;;;;;;;5020349;28;20529;-82
2022/09/04 09:03:09;;;;;;;5.80;2.28;;;;;;;;;;5033898;28;20033;-82
2022/09/04 09:06:20;;;;;;;3.63;1.88;;;;;;;;;;5034838;28;20056;-82
2022/09/04 09:09:19;;;;;;;6.30;2.03;;;;;;;;;;5029419;28;20037;-82
2022/09/04 09:12:54;;;;;;;4.82;2.10;;;;;;;;;;5046541;28;20045;-81
2022/09/04 09:15:40;;;;;;;7.10;2.05;;;;;;;;;;5044641;28;20048;-82
2022/09/04 09:18:34;;;;;;;4.00;2.10;;;;;;;;;;5031173;28;20061;-83
2022/09/04 09:21:51;;;;;;;7.38;2.35;;;;;;;;;;5047234;28;20029;-82
2022/09/04 09:24:40;;;;;;;;;;;;;;;;;;5037940;28;20590;-80
2022/09/04 09:27:33;;;;;;;4.15;2.20;;;;;;;;;;5014193;28;19928;-83
2022/09/04 09:30:08;;;;;;;4.43;2.10;;;;;;;;;;5012480;28;20052;-81
2022/09/04 09:33:22;;;;;;;5.40;2.17;;;;;;;;;;5013666;28;20491;-80
2022/09/04 09:36:26;;;;;;;3.45;1.98;;;;;;;;;;5028674;28;20505;-82
2022/09/04 09:39:33;;;;;;;5.47;1.95;;;;;;;;;;5040209;28;20155;-82
2022/09/04 09:42:36;;;;;;;6.38;2.20;;;;;;;;;;5039787;28;20098;-82
2022/09/04 09:45:53;;;;;;;4.80;2.28;;;;;;;;;;5026147;28;20878;-83
2022/09/04 09:48:35;;;;;;;5.68;2.13;;;;;;;;;;5016461;28;20041;-82
2022/09/04 09:51:41;;;;;;;3.63;2.00;;;;;;;;;;5030028;28;20041;-82
2022/09/04 09:54:43;;;;;;;4.80;2.33;;;;;;;;;;5036702;28;20043;-82
2022/09/04 09:58:27;;;;;;;5.30;2.10;;;;;;;;;;5029035;28;20960;-81
2022/09/04 10:01:26;;;;;;;5.60;2.20;;;;;;;;;;4992207;28;20096;-82
2022/09/04 10:04:32;;;;;;;3.00;1.60;;;;;;;;;;5007606;28;20047;-84
2022/09/04 10:07:27;;;;;;;5.22;1.92;;;;;;;;;;4976058;28;20508;-82
2022/09/04 10:10:37;;;;;;;3.60;1.90;;;;;;;;;;4968166;28;20136;-81
2022/09/04 10:13:39;;;;;;;4.15;1.58;;;;;;;;;;4969444;28;20169;-82
2022/09/04 10:16:18;;;;;;;3.58;2.10;;;;;;;;;;4992716;28;20969;-81
2022/09/04 10:19:23;;;;;;;3.22;1.63;;;;;;;;;;4957354;28;20057;-82
2022/09/04 10:22:27;;;;;;;5.10;2.03;;;;;;;;;;4956508;28;20050;-82
2022/09/04 10:25:27;;;;;;;4.93;2.00;;;;;;;;;;4940712;28;20667;-82
2022/09/04 10:29:27;;;;;;;4.05;2.00;;;;;;;;;;4944041;28;20934;-82
2022/09/04 10:33:19;;;;;;;5.57;1.83;;;;;;;;;;4940372;28;20169;-84
2022/09/04 10:36:21;;;;;;;3.58;1.85;;;;;;;;;;4939630;28;20038;-84
2022/09/04 10:42:39;;;;;;;4.30;1.92;;;;;;;;;;4970512;28;20054;-83
2022/09/04 10:45:20;;;;;;;4.97;2.03;;;;;;;;;;4946393;28;20093;-84
2022/09/04 10:48:29;;;;;;;3.55;1.80;;;;;;;;;;4953446;28;20124;-83
2022/09/04 10:51:26;;;;;;;4.57;2.35;;;;;;;;;;4949483;28;20054;-84
2022/09/04 10:55:26;;;;;;;4.57;2.03;;;;;;;;;;4972491;28;20614;-82
2022/09/04 10:58:27;;;;;;;3.50;1.83;;;;;;;;;;4932528;28;20051;-83
2022/09/04 11:01:54;;;;;;;3.10;1.80;;;;;;;;;;4989249;28;20046;-81
2022/09/04 11:05:02;;;;;;;4.50;1.80;;;;;;;;;;4982250;28;20037;-81
2022/09/04 11:07:57;;;;;;;3.58;1.75;;;;;;;;;;4997187;28;21028;-81
2022/09/04 11:11:00;;;;;;;4.60;1.83;;;;;;;;;;4998088;28;20042;-80
2022/09/04 11:13:55;;;;;;;3.67;2.13;;;;;;;;;;5012330;28;20590;-82
2022/09/04 11:16:49;;;;;;;4.00;2.42;;;;;;;;;;5002808;28;20053;-82
2022/09/04 11:19:42;;;;;;;4.75;2.03;;;;;;;;;;5038607;28;20041;-82
2022/09/04 11:22:49;;;;;;;4.25;2.03;;;;;;;;;;5019163;28;20056;-82
2022/09/04 11:26:04;;;;;;;5.57;2.00;;;;;;;;;;4971551;28;20057;-81
2022/09/04 11:28:56;;;;;;;4.38;2.05;;;;;;;;;;4955334;28;20049;-82
2022/09/04 11:31:39;;;;;;;3.63;1.92;;;;;;;;;;4983302;28;20046;-82
2022/09/04 11:34:45;;;;;;;3.97;1.92;;;;;;;;;;4981962;28;20041;-82
2022/09/04 11:37:45;;;;;;;3.58;1.95;;;;;;;;;;5005770;28;20297;-81
2022/09/04 11:40:37;;;;;;;3.53;2.03;;;;;;;;;;4987089;28;20053;-81
2022/09/04 11:43:45;;;;;;;3.63;2.05;;;;;;;;;;5004519;28;20089;-81
2022/09/04 11:46:32;;;;;;;4.35;1.98;;;;;;;;;;5004820;28;20053;-81
2022/09/04 11:49:29;;;;;;;4.28;1.80;;;;;;;;;;4970037;28;20057;-81
2022/09/04 11:52:13;;;;;;;4.05;1.95;;;;;;;;;;4986803;28;20050;-80
2022/09/04 11:55:00;;;;;;;6.40;1.70;;;;;;;;;;4981204;28;20534;-80
2022/09/04 11:57:57;;;;;;;5.57;2.10;;;;;;;;;;4985936;28;20143;-80
2022/09/04 12:00:41;;;;;;;4.05;2.00;;;;;;;;;;4973830;28;20042;-81
2022/09/04 12:03:39;;;;;;;3.60;2.10;;;;;;;;;;5050557;28;20069;-83
2022/09/04 12:06:49;;;;;;;4.43;2.25;;;;;;;;;;5056628;28;20099;-80
2022/09/04 12:09:42;;;;;;;4.60;2.28;;;;;;;;;;5024396;28;20033;-81
2022/09/04 12:12:13;;;;;;;3.40;1.90;;;;;;;;;;5035371;28;20068;-81
2022/09/04 12:15:21;;;;;;;4.18;2.00;;;;;;;;;;5042729;28;20113;-82
2022/09/04 12:18:32;;;;;;;3.53;1.90;;;;;;;;;;5024996;28;20041;-81
2022/09/04 12:21:33;;;;;;;5.57;2.20;;;;;;;;;;5024826;28;20063;-83
2022/09/04 12:25:00;;;;;;;4.43;1.98;;;;;;;;;;5006738;28;20434;-82
2022/09/04 12:28:14;;;;;;;3.65;1.98;;;;;;;;;;5026149;28;20053;-84
2022/09/04 12:31:53;;;;;;;4.33;1.90;;;;;;;;;;5017465;28;20479;-83
2022/09/04 12:34:43;;;;;;;3.73;2.13;;;;;;;;;;5025895;28;20780;-83
2022/09/04 12:38:05;;;;;;;;;;;;;;;;;;;;;
2022/09/04 12:41:16;;;;;;;3.90;2.35;;;;;;;;;;5021930;28;20075;-84
2022/09/04 12:44:32;;;;;;;;;;;;;;;;;;;;;
2022/09/04 12:47:49;;;;;;;5.40;2.00;;;;;;;;;;4905284;29;20066;-83
2022/09/04 12:51:45;;;;;;;;;;;;;;;;;;;;;
2022/09/04 12:55:46;;;;;;;;;;;;;;;;;;;;;
2022/09/04 12:58:52;;;;;;;3.38;1.73;;;;;;;;;;4785350;29;20141;-83
2022/09/04 13:02:48;;;;;;;;;;;;;;;;;;;;;
2022/09/04 13:06:12;;;;;;;3.92;2.03;;;;;;;;;;4735316;30;20064;-84
2022/09/04 13:09:16;;;;;;;8.45;2.45;;;;;;;;;;4711777;30;20056;-83
2022/09/04 13:12:00;;;;;;;4.07;1.80;;;;;;;;;;4718089;30;20043;-85
2022/09/04 13:15:06;;;;;;;3.55;1.98;;;;;;;;;;4811596;29;20058;-82
2022/09/04 13:18:21;;;;;;;5.55;2.08;;;;;;;;;;4811705;29;20058;-84
2022/09/04 13:21:20;;;;;;;5.55;2.25;;;;;;;;;;4824950;29;20649;-84
2022/09/04 13:24:02;;;;;;;4.00;1.90;;;;;;;;;;4856183;29;20053;-85
2022/09/04 13:26:41;;;;;;;4.63;2.15;;;;;;;;;;4848343;29;20044;-84
2022/09/04 13:30:23;;;;;;;3.78;2.20;;;;;;;;;;4879151;29;20049;-86
2022/09/04 14:02:35;;;;;;;2.60;1.70;;;;;;;;;;4945089;28;20047;-91
2022/09/04 14:05:57;;;;;;;4.10;2.05;;;;;;;;;;4908901;29;20048;-86
2022/09/04 14:15:35;;;;;;;4.97;2.03;;;;;;;;;;4941307;29;20074;-88
2022/09/04 14:20:20;;;;;;;3.58;1.77;;;;;;;;;;4884502;29;20147;-87
2022/09/04 14:24:33;;;;;;;3.95;2.00;;;;;;;;;;4872157;29;20574;-88
2022/09/04 15:32:28;;;;;;;3.70;1.42;;;;;;;;;;4932614;26;20049;-90
2022/09/04 15:35:26;;;;;;;4.70;1.83;;;;;;;;;;5032046;28;20045;-89
2022/09/04 15:38:35;;;;;;;3.20;1.90;;;;;;;;;;4981611;28;20137;-90
2022/09/04 15:41:44;;;;;;;3.60;1.65;;;;;;;;;;5026642;22;20065;-96
2022/09/04 15:44:31;;;;;;;2.70;1.70;;;;;;;;;;5022273;28;20498;-96
2022/09/04 15:47:22;;;;;;;4.15;2.10;;;;;;;;;;5023365;28;20072;-96
2022/09/04 15:49:57;;;;;;;3.85;1.73;;;;;;;;;;5024027;28;20080;-96
2022/09/04 15:52:36;;;;;;;6.28;1.92;;;;;;;;;;5023231;28;20123;-96
2022/09/04 15:55:21;;;;;;;3.28;1.73;;;;;;;;;;5009241;28;20398;-95
2022/09/04 15:58:28;;;;;;;6.82;2.40;;;;;;;;;;5026842;28;20044;-96
2022/09/04 16:01:05;;;;;;;5.25;1.80;;;;;;;;;;5006841;28;20056;-96
2022/09/04 16:03:59;;;;;;;3.63;1.65;;;;;;;;;;5023084;28;20050;-96
2022/09/04 16:06:31;;;;;;;4.60;1.95;;;;;;;;;;5023568;28;20041;-96
2022/09/04 16:09:11;;;;;;;6.43;1.70;;;;;;;;;;5022026;28;20096;-95
2022/09/04 16:11:46;;;;;;;3.00;1.70;;;;;;;;;;5021968;28;20144;-96
2022/09/04 16:14:55;;;;;;;3.22;1.67;;;;;;;;;;5010915;28;20041;-96
2022/09/04 16:17:30;;;;;;;2.97;1.83;;;;;;;;;;5027413;28;20117;-95
2022/09/04 16:19:58;;;;;;;4.22;2.00;;;;;;;;;;5022424;28;20049;-94
2022/09/04 16:22:33;;;;;;;4.70;1.90;;;;;;;;;;5022558;28;20053;-95
2022/09/04 16:25:09;;;;;;;6.47;1.83;;;;;;;;;;5025633;28;20431;-95
2022/09/04 16:27:53;;;;;;;4.43;1.88;;;;;;;;;;5021072;28;20061;-96
2022/09/04 16:30:29;;;;;;;3.92;2.10;;;;;;;;;;5023821;28;20049;-96
2022/09/04 16:32:59;;;;;;;3.60;2.03;;;;;;;;;;5022565;28;20049;-96
2022/09/04 16:35:54;;;;;;;7.85;2.83;;;;;;;;;;5024776;28;20044;-96
2022/09/04 16:38:31;;;;;;;5.60;2.03;;;;;;;;;;5024888;28;20038;-96
2022/09/04 16:41:15;;;;;;;4.20;2.75;;;;;;;;;;5023461;28;20049;-96
2022/09/04 16:44:33;;;;;;;3.75;1.90;;;;;;;;;;5023686;28;20456;-96
2022/09/04 16:47:13;;;;;;;8.13;2.22;;;;;;;;;;4926987;29;20532;-96
2022/09/04 16:49:53;;;;;;;7.20;3.15;;;;;;;;;;4944909;29;20417;-96
2022/09/04 16:52:43;;;;;;;6.68;2.55;;;;;;;;;;4929814;29;20047;-96
2022/09/04 16:55:42;;;;;;;3.88;2.17;;;;;;;;;;4919322;29;20125;-96
2022/09/04 16:58:38;;;;;;;6.28;2.60;;;;;;;;;;4930519;29;20055;-96
2022/09/04 17:01:16;;;;;;;4.80;2.17;;;;;;;;;;4930381;29;20127;-96
2022/09/04 17:04:45;;;;;;;5.53;2.13;;;;;;;;;;4931487;29;20051;-96
2022/09/04 17:08:12;;;;;;;5.32;2.35;;;;;;;;;;4849231;29;20077;-96
2022/09/04 17:11:17;;;;;;;4.80;2.17;;;;;;;;;;4823073;29;20566;-96
2022/09/04 17:14:28;;;;;;;6.55;2.30;;;;;;;;;;4839600;29;20125;-96
2022/09/04 17:17:24;;;;;;;5.47;2.30;;;;;;;;;;4844272;29;20045;-96
2022/09/04 17:20:05;;;;;;;3.75;2.28;;;;;;;;;;4877153;22;20054;-85
2022/09/04 17:23:46;;;;;;;4.43;2.22;;;;;;;;;;5018008;28;20052;-85
2022/09/04 17:26:39;;;;;;;4.82;2.63;;;;;;;;;;4946432;28;20058;-85
2022/09/04 17:29:43;;;;;;;6.70;2.60;;;;;;;;;;4954930;28;20139;-85
2022/09/04 17:32:28;;;;;;;4.10;2.28;;;;;;;;;;4937632;28;20460;-85
2022/09/04 17:35:56;;;;;;;5.55;2.70;;;;;;;;;;4942701;28;20685;-85
2022/09/04 17:39:00;;;;;;;6.47;2.40;;;;;;;;;;4958283;28;20050;-93
2022/09/04 17:42:03;;;;;;;5.32;2.70;;;;;;;;;;4933764;28;20643;-85
2022/09/04 17:44:52;;;;;;;4.85;2.53;;;;;;;;;;4956963;28;20552;-85
2022/09/04 17:47:41;;;;;;;6.30;2.42;;;;;;;;;;4945596;28;20039;-86
2022/09/04 17:50:15;;;;;;;8.95;2.85;;;;;;;;;;4956236;28;20055;-93
2022/09/04 17:53:06;;;;;;;5.03;2.50;;;;;;;;;;4916785;29;20055;-94
2022/09/04 17:56:04;;;;;;;3.97;2.13;;;;;;;;;;4945405;28;20142;-93
2022/09/04 17:58:51;;;;;;;4.75;2.47;;;;;;;;;;4938305;29;20050;-94
2022/09/04 18:01:23;;;;;;;4.47;2.25;;;;;;;;;;4955038;28;20051;-85
2022/09/04 18:05:02;;;;;;;4.30;2.17;;;;;;;;;;5018346;28;20033;-85
2022/09/04 18:07:49;;;;;;;7.68;2.28;;;;;;;;;;4983421;28;20718;-85
2022/09/04 18:10:44;;;;;;;5.10;2.45;;;;;;;;;;4973156;28;20039;-95
2022/09/04 18:13:20;;;;;;;5.65;2.25;;;;;;;;;;4956616;28;20426;-95
2022/09/04 18:16:34;;;;;;;6.50;2.50;;;;;;;;;;4956501;28;20057;-94
2022/09/04 18:19:31;;;;;;;4.25;2.15;;;;;;;;;;4934130;28;20047;-95
2022/09/04 18:22:10;;;;;;;4.72;2.58;;;;;;;;;;4933439;28;20082;-95
2022/09/04 18:25:01;;;;;;;4.28;2.17;;;;;;;;;;4956601;28;20065;-95
2022/09/04 18:28:03;;;;;;;5.22;2.30;;;;;;;;;;4961428;28;20042;-92
2022/09/04 18:31:10;;;;;;;;;;;;;;;;;;5001422;28;20046;-96
2022/09/04 18:34:34;;;;;;;4.28;2.25;;;;;;;;;;4982363;28;19921;-92
2022/09/04 18:37:30;;;;;;;4.82;2.13;;;;;;;;;;4979030;28;20062;-93
2022/09/04 18:40:21;;;;;;;;;;;;;;;;;;4961039;28;20039;-92
2022/09/04 18:43:49;;;;;;;5.60;2.33;;;;;;;;;;4949573;28;20059;-93
2022/09/04 18:46:36;;;;;;;3.95;2.05;;;;;;;;;;5009925;28;20042;-95
2022/09/04 18:49:24;;;;;;;4.57;2.20;;;;;;;;;;5025680;28;20061;-86
2022/09/04 18:52:26;;;;;;;5.43;2.30;;;;;;;;;;5016544;28;20100;-85
2022/09/04 18:55:23;;;;;;;6.53;3.08;;;;;;;;;;5011815;28;20057;-85
2022/09/04 18:58:11;;;;;;;6.28;2.28;;;;;;;;;;5028281;28;20383;-86
2022/09/04 19:00:51;;;;;;;6.20;2.55;;;;;;;;;;5012523;28;20041;-86
2022/09/04 19:03:24;;;;;;;6.28;2.38;;;;;;;;;;4992566;28;20053;-86
2022/09/04 19:05:56;;;;;;;6.07;2.58;;;;;;;;;;4994296;28;20168;-86
2022/09/04 19:08:51;;;;;;;4.72;2.40;;;;;;;;;;5017411;28;20061;-94
2022/09/04 19:11:35;;;;;;;5.47;2.40;;;;;;;;;;5035225;28;20413;-95
2022/09/04 19:14:16;;;;;;;5.55;2.95;;;;;;;;;;5002798;28;20485;-96
2022/09/04 19:16:50;;;;;;;4.90;2.42;;;;;;;;;;5018850;28;20050;-95
2022/09/04 19:19:36;;;;;;;5.32;2.30;;;;;;;;;;5012840;28;20049;-95
2022/09/04 19:22:24;;;;;;;5.35;2.25;;;;;;;;;;5034970;28;20049;-96
2022/09/04 19:25:03;;;;;;;5.00;2.50;;;;;;;;;;5018641;28;20149;-95
2022/09/04 19:27:39;;;;;;;4.75;2.03;;;;;;;;;;5018771;28;20067;-96
2022/09/04 19:30:13;;;;;;;5.93;2.60;;;;;;;;;;5005420;28;20038;-85
2022/09/04 19:33:01;;;;;;;5.85;2.60;;;;;;;;;;5020013;28;20042;-85
2022/09/04 19:35:41;;;;;;;6.25;2.97;;;;;;;;;;5004602;28;20080;-85
2022/09/04 19:38:49;;;;;;;6.40;2.90;;;;;;;;;;5016203;28;20038;-95
2022/09/04 19:41:43;;;;;;;5.68;2.58;;;;;;;;;;4995026;28;20078;-95
2022/09/04 19:44:31;;;;;;;5.95;2.20;;;;;;;;;;4981506;28;20498;-95
2022/09/04 19:47:37;;;;;;;4.25;2.38;;;;;;;;;;4994812;28;20073;-95
2022/09/04 19:50:18;;;;;;;6.47;2.65;;;;;;;;;;4995031;28;20467;-95
2022/09/04 19:53:16;;;;;;;4.65;2.47;;;;;;;;;;4992088;28;20053;-95
2022/09/04 19:56:18;;;;;;;4.68;2.35;;;;;;;;;;5011838;28;20129;-95
2022/09/04 19:58:56;;;;;;;6.22;2.70;;;;;;;;;;4995808;28;20074;-95
2022/09/04 20:01:37;;;;;;;7.40;2.50;;;;;;;;;;5014468;28;20092;-95
2022/09/04 20:04:17;;;;;;;3.90;2.28;;;;;;;;;;4997898;28;20132;-95
2022/09/04 20:06:47;;;;;;;4.57;2.30;;;;;;;;;;5014339;28;20041;-95
2022/09/04 20:09:27;;;;;;;7.57;2.55;;;;;;;;;;4999182;28;20136;-85
2022/09/04 20:12:12;;;;;;;5.00;2.40;;;;;;;;;;5023114;28;20224;-85
2022/09/04 20:14:53;;;;;;;8.25;2.78;;;;;;;;;;5036771;28;20053;-85
2022/09/04 20:18:01;;;;;;;5.75;2.85;;;;;;;;;;5016739;28;20050;-85
2022/09/04 20:20:57;;;;;;;4.20;2.08;;;;;;;;;;5020553;28;20848;-86
2022/09/04 20:23:32;;;;;;;;;;;;;;;;;;5016523;28;20065;-85
2022/09/04 20:26:56;;;;;;;5.55;2.60;;;;;;;;;;5008439;28;20647;-85
2022/09/04 20:29:43;;;;;;;4.47;2.17;;;;;;;;;;5036354;28;20084;-96
2022/09/04 20:32:27;;;;;;;4.43;2.22;;;;;;;;;;5029085;28;20045;-95